sensor_id;sensor_type;location;lat;lon;timestamp;P1;durP1;ratioP1;P2;durP2;ratioP2
54328;SDS011;40710;51.120;13.136;2022-09-03T00:02:37;1195.53;;;461.80;;
54328;SDS011;40710;51.120;13.136;2022-09-03T00:08:04;1247.97;;;451.95;;
54328;SDS011;40710;51.120;13.136;2022-09-03T00:10:52;1209.32;;;428.73;;
54328;SDS011;40710;51.120;13.136;2022-09-03T00:13:41;1167.85;;;433.52;;
54328;SDS011;40710;51.120;13.136;2022-09-03T00:16:06;1253.82;;;450.38;;
54328;SDS011;40710;51.120;13.136;2022-09-03T00:18:34;1229.65;;;465.92;;
54328;SDS011;40710;51.120;13.136;2022-09-03T00:21:08;1183.97;;;446.67;;
54328;SDS011;40710;51.120;13.136;2022-09-03T00:26:13;1191.63;;;428.92;;
54328;SDS011;40710;51.120;13.136;2022-09-03T00:28:56;1202.03;;;436.77;;
54328;SDS011;40710;51.120;13.136;2022-09-03T00:31:34;1274.05;;;444.48;;
54328;SDS011;40710;51.120;13.136;2022-09-03T00:34:04;1246.88;;;457.67;;
54328;SDS011;40710;51.120;13.136;2022-09-03T00:36:35;1245.85;;;454.88;;
54328;SDS011;40710;51.120;13.136;2022-09-03T00:39:05;1208.32;;;429.08;;
54328;SDS011;40710;51.120;13.136;2022-09-03T00:41:39;1292.20;;;441.33;;
54328;SDS011;40710;51.120;13.136;2022-09-03T00:47:12;1260.13;;;412.70;;
54328;SDS011;40710;51.120;13.136;2022-09-03T00:52:59;1277.80;;;423.55;;
54328;SDS011;40710;51.120;13.136;2022-09-03T00:55:51;1266.68;;;430.23;;
54328;SDS011;40710;51.120;13.136;2022-09-03T00:58:54;1267.70;;;436.88;;
54328;SDS011;40710;51.120;13.136;2022-09-03T01:09:52;1232.45;;;441.30;;
54328;SDS011;40710;51.120;13.136;2022-09-03T01:18:06;1277.00;;;426.83;;
54328;SDS011;40710;51.120;13.136;2022-09-03T01:20:44;1280.90;;;434.15;;
54328;SDS011;40710;51.120;13.136;2022-09-03T01:23:30;1217.20;;;400.83;;
54328;SDS011;40710;51.120;13.136;2022-09-03T01:29:04;1207.90;;;406.45;;
54328;SDS011;40710;51.120;13.136;2022-09-03T01:31:56;1255.68;;;435.23;;
54328;SDS011;40710;51.120;13.136;2022-09-03T01:34:37;1241.10;;;437.20;;
54328;SDS011;40710;51.120;13.136;2022-09-03T01:37:39;1235.25;;;431.05;;
54328;SDS011;40710;51.120;13.136;2022-09-03T01:40:35;1229.10;;;446.48;;
54328;SDS011;40710;51.120;13.136;2022-09-03T01:43:31;1209.88;;;459.98;;
54328;SDS011;40710;51.120;13.136;2022-09-03T01:46:08;1152.07;;;436.75;;
54328;SDS011;40710;51.120;13.136;2022-09-03T01:51:12;1240.15;;;448.20;;
54328;SDS011;40710;51.120;13.136;2022-09-03T01:56:44;1164.97;;;425.98;;
54328;SDS011;40710;51.120;13.136;2022-09-03T02:04:54;1168.15;;;466.25;;
54328;SDS011;40710;51.120;13.136;2022-09-03T02:07:22;1187.60;;;455.58;;
54328;SDS011;40710;51.120;13.136;2022-09-03T02:09:49;1136.68;;;429.02;;
54328;SDS011;40710;51.120;13.136;2022-09-03T02:12:14;1140.63;;;426.25;;
54328;SDS011;40710;51.120;13.136;2022-09-03T02:14:41;1108.28;;;437.55;;
54328;SDS011;40710;51.120;13.136;2022-09-03T02:17:06;1151.53;;;459.88;;
54328;SDS011;40710;51.120;13.136;2022-09-03T02:19:32;1119.55;;;438.55;;
54328;SDS011;40710;51.120;13.136;2022-09-03T02:21:57;1130.38;;;434.55;;
54328;SDS011;40710;51.120;13.136;2022-09-03T02:24:22;1131.72;;;434.63;;
54328;SDS011;40710;51.120;13.136;2022-09-03T02:26:48;1125.57;;;433.98;;
54328;SDS011;40710;51.120;13.136;2022-09-03T02:29:13;1155.72;;;469.90;;
54328;SDS011;40710;51.120;13.136;2022-09-03T02:31:40;1122.57;;;429.90;;
54328;SDS011;40710;51.120;13.136;2022-09-03T02:34:04;1163.13;;;457.38;;
54328;SDS011;40710;51.120;13.136;2022-09-03T02:36:33;1149.50;;;460.35;;
54328;SDS011;40710;51.120;13.136;2022-09-03T02:39:00;1099.93;;;437.05;;
54328;SDS011;40710;51.120;13.136;2022-09-03T02:41:24;1134.18;;;457.40;;
54328;SDS011;40710;51.120;13.136;2022-09-03T02:43:54;1148.15;;;457.13;;
54328;SDS011;40710;51.120;13.136;2022-09-03T02:46:31;1129.47;;;411.80;;
54328;SDS011;40710;51.120;13.136;2022-09-03T02:49:01;1115.38;;;422.23;;
54328;SDS011;40710;51.120;13.136;2022-09-03T02:51:30;1116.03;;;429.08;;
54328;SDS011;40710;51.120;13.136;2022-09-03T02:53:55;1108.78;;;434.23;;
54328;SDS011;40710;51.120;13.136;2022-09-03T02:56:20;1128.30;;;445.55;;
54328;SDS011;40710;51.120;13.136;2022-09-03T02:58:50;1138.38;;;445.92;;
54328;SDS011;40710;51.120;13.136;2022-09-03T03:01:14;1130.53;;;412.02;;
54328;SDS011;40710;51.120;13.136;2022-09-03T03:03:39;1131.18;;;420.42;;
54328;SDS011;40710;51.120;13.136;2022-09-03T03:06:03;1164.13;;;472.27;;
54328;SDS011;40710;51.120;13.136;2022-09-03T03:08:29;1102.53;;;441.67;;
54328;SDS011;40710;51.120;13.136;2022-09-03T03:10:55;1105.55;;;435.98;;
54328;SDS011;40710;51.120;13.136;2022-09-03T03:13:22;1083.15;;;449.35;;
54328;SDS011;40710;51.120;13.136;2022-09-03T03:15:46;1124.05;;;483.13;;
54328;SDS011;40710;51.120;13.136;2022-09-03T03:18:12;1079.50;;;445.65;;
54328;SDS011;40710;51.120;13.136;2022-09-03T03:20:37;1130.63;;;479.48;;
54328;SDS011;40710;51.120;13.136;2022-09-03T03:23:01;1114.78;;;475.48;;
54328;SDS011;40710;51.120;13.136;2022-09-03T03:25:27;1071.20;;;448.55;;
54328;SDS011;40710;51.120;13.136;2022-09-03T03:27:53;1070.07;;;444.55;;
54328;SDS011;40710;51.120;13.136;2022-09-03T03:30:19;1135.43;;;470.30;;
54328;SDS011;40710;51.120;13.136;2022-09-03T03:32:44;1114.18;;;478.92;;
54328;SDS011;40710;51.120;13.136;2022-09-03T03:35:08;1076.40;;;433.50;;
54328;SDS011;40710;51.120;13.136;2022-09-03T03:37:34;1060.57;;;446.08;;
54328;SDS011;40710;51.120;13.136;2022-09-03T03:39:59;1060.32;;;447.65;;
54328;SDS011;40710;51.120;13.136;2022-09-03T03:42:23;1062.75;;;447.48;;
54328;SDS011;40710;51.120;13.136;2022-09-03T03:44:47;1108.78;;;478.83;;
54328;SDS011;40710;51.120;13.136;2022-09-03T03:47:12;1060.95;;;448.58;;
54328;SDS011;40710;51.120;13.136;2022-09-03T03:49:36;1112.15;;;475.48;;
54328;SDS011;40710;51.120;13.136;2022-09-03T03:52:02;1050.82;;;447.10;;
54328;SDS011;40710;51.120;13.136;2022-09-03T03:54:27;1032.90;;;440.48;;
54328;SDS011;40710;51.120;13.136;2022-09-03T03:56:51;1021.35;;;436.10;;
54328;SDS011;40710;51.120;13.136;2022-09-03T03:59:16;1088.57;;;470.45;;
54328;SDS011;40710;51.120;13.136;2022-09-03T04:01:40;1034.57;;;429.50;;
54328;SDS011;40710;51.120;13.136;2022-09-03T04:04:04;1035.03;;;425.13;;
54328;SDS011;40710;51.120;13.136;2022-09-03T04:06:29;1073.18;;;472.65;;
54328;SDS011;40710;51.120;13.136;2022-09-03T04:08:53;1089.35;;;475.58;;
54328;SDS011;40710;51.120;13.136;2022-09-03T04:11:19;1052.47;;;459.83;;
54328;SDS011;40710;51.120;13.136;2022-09-03T04:13:45;1051.03;;;465.58;;
54328;SDS011;40710;51.120;13.136;2022-09-03T04:16:14;1067.25;;;468.27;;
54328;SDS011;40710;51.120;13.136;2022-09-03T04:18:41;1089.88;;;488.50;;
54328;SDS011;40710;51.120;13.136;2022-09-03T04:21:07;1057.03;;;466.52;;
54328;SDS011;40710;51.120;13.136;2022-09-03T04:23:34;1045.50;;;444.15;;
54328;SDS011;40710;51.120;13.136;2022-09-03T04:25:59;1082.20;;;491.48;;
54328;SDS011;40710;51.120;13.136;2022-09-03T04:28:24;1085.85;;;483.17;;
54328;SDS011;40710;51.120;13.136;2022-09-03T04:30:49;1114.13;;;488.70;;
54328;SDS011;40710;51.120;13.136;2022-09-03T04:33:13;1099.45;;;491.13;;
54328;SDS011;40710;51.120;13.136;2022-09-03T04:35:38;1065.95;;;462.17;;
54328;SDS011;40710;51.120;13.136;2022-09-03T04:38:04;1151.65;;;595.42;;
54328;SDS011;40710;51.120;13.136;2022-09-03T04:40:28;1110.10;;;600.30;;
54328;SDS011;40710;51.120;13.136;2022-09-03T04:42:55;1115.65;;;614.60;;
54328;SDS011;40710;51.120;13.136;2022-09-03T04:45:21;1133.90;;;647.63;;
54328;SDS011;40710;51.120;13.136;2022-09-03T04:47:54;1113.43;;;681.00;;
54328;SDS011;40710;51.120;13.136;2022-09-03T04:50:22;1063.95;;;599.78;;
54328;SDS011;40710;51.120;13.136;2022-09-03T04:52:47;1081.75;;;625.42;;
54328;SDS011;40710;51.120;13.136;2022-09-03T04:55:11;1077.65;;;621.92;;
54328;SDS011;40710;51.120;13.136;2022-09-03T04:57:36;988.97;;;474.58;;
54328;SDS011;40710;51.120;13.136;2022-09-03T05:00:01;1007.28;;;522.88;;
54328;SDS011;40710;51.120;13.136;2022-09-03T05:02:25;998.55;;;523.10;;
54328;SDS011;40710;51.120;13.136;2022-09-03T05:04:50;988.85;;;482.38;;
54328;SDS011;40710;51.120;13.136;2022-09-03T05:07:15;1033.13;;;599.92;;
54328;SDS011;40710;51.120;13.136;2022-09-03T05:09:40;973.85;;;476.75;;
54328;SDS011;40710;51.120;13.136;2022-09-03T05:12:04;938.33;;;444.15;;
54328;SDS011;40710;51.120;13.136;2022-09-03T05:14:29;1005.60;;;524.55;;
54328;SDS011;40710;51.120;13.136;2022-09-03T05:16:53;987.17;;;491.17;;
54328;SDS011;40710;51.120;13.136;2022-09-03T05:19:17;962.85;;;464.95;;
54328;SDS011;40710;51.120;13.136;2022-09-03T05:21:42;937.38;;;439.73;;
54328;SDS011;40710;51.120;13.136;2022-09-03T05:24:06;968.95;;;501.42;;
54328;SDS011;40710;51.120;13.136;2022-09-03T05:26:32;913.22;;;428.02;;
54328;SDS011;40710;51.120;13.136;2022-09-03T05:29:01;907.92;;;395.23;;
54328;SDS011;40710;51.120;13.136;2022-09-03T05:31:30;907.35;;;408.88;;
54328;SDS011;40710;51.120;13.136;2022-09-03T05:33:55;910.13;;;412.42;;
54328;SDS011;40710;51.120;13.136;2022-09-03T05:36:23;920.20;;;430.63;;
54328;SDS011;40710;51.120;13.136;2022-09-03T05:38:48;910.00;;;419.15;;
54328;SDS011;40710;51.120;13.136;2022-09-03T05:41:14;904.28;;;398.33;;
54328;SDS011;40710;51.120;13.136;2022-09-03T05:43:39;921.72;;;400.38;;
54328;SDS011;40710;51.120;13.136;2022-09-03T05:46:05;908.03;;;406.48;;
54328;SDS011;40710;51.120;13.136;2022-09-03T05:48:41;906.05;;;400.17;;
54328;SDS011;40710;51.120;13.136;2022-09-03T05:53:35;969.17;;;458.33;;
54328;SDS011;40710;51.120;13.136;2022-09-03T05:56:05;926.80;;;437.30;;
54328;SDS011;40710;51.120;13.136;2022-09-03T05:58:33;891.28;;;401.90;;
54328;SDS011;40710;51.120;13.136;2022-09-03T06:00:58;904.92;;;412.15;;
54328;SDS011;40710;51.120;13.136;2022-09-03T06:03:22;861.90;;;372.17;;
54328;SDS011;40710;51.120;13.136;2022-09-03T06:05:50;855.78;;;374.75;;
54328;SDS011;40710;51.120;13.136;2022-09-03T06:08:15;873.75;;;400.65;;
54328;SDS011;40710;51.120;13.136;2022-09-03T06:10:39;836.92;;;360.50;;
54328;SDS011;40710;51.120;13.136;2022-09-03T06:13:03;832.00;;;386.08;;
54328;SDS011;40710;51.120;13.136;2022-09-03T06:15:28;881.30;;;368.42;;
54328;SDS011;40710;51.120;13.136;2022-09-03T06:17:52;878.38;;;404.13;;
54328;SDS011;40710;51.120;13.136;2022-09-03T06:20:17;865.75;;;374.25;;
54328;SDS011;40710;51.120;13.136;2022-09-03T06:22:41;902.15;;;414.35;;
54328;SDS011;40710;51.120;13.136;2022-09-03T06:25:06;879.30;;;406.08;;
54328;SDS011;40710;51.120;13.136;2022-09-03T06:27:31;895.25;;;404.73;;
54328;SDS011;40710;51.120;13.136;2022-09-03T06:29:55;867.47;;;362.38;;
54328;SDS011;40710;51.120;13.136;2022-09-03T06:32:21;853.72;;;361.73;;
54328;SDS011;40710;51.120;13.136;2022-09-03T06:34:46;875.95;;;374.83;;
54328;SDS011;40710;51.120;13.136;2022-09-03T06:37:10;882.85;;;374.65;;
54328;SDS011;40710;51.120;13.136;2022-09-03T06:39:34;874.30;;;380.85;;
54328;SDS011;40710;51.120;13.136;2022-09-03T06:41:59;882.95;;;380.70;;
54328;SDS011;40710;51.120;13.136;2022-09-03T06:44:23;882.05;;;378.95;;
54328;SDS011;40710;51.120;13.136;2022-09-03T06:46:48;900.30;;;382.70;;
54328;SDS011;40710;51.120;13.136;2022-09-03T06:49:13;889.47;;;385.10;;
54328;SDS011;40710;51.120;13.136;2022-09-03T06:51:38;893.42;;;391.40;;
54328;SDS011;40710;51.120;13.136;2022-09-03T06:54:04;904.78;;;408.25;;
54328;SDS011;40710;51.120;13.136;2022-09-03T06:56:34;903.30;;;429.48;;
54328;SDS011;40710;51.120;13.136;2022-09-03T06:59:02;911.28;;;423.90;;
54328;SDS011;40710;51.120;13.136;2022-09-03T07:01:29;882.30;;;388.23;;
54328;SDS011;40710;51.120;13.136;2022-09-03T07:03:55;892.47;;;412.75;;
54328;SDS011;40710;51.120;13.136;2022-09-03T07:06:21;902.83;;;422.63;;
54328;SDS011;40710;51.120;13.136;2022-09-03T07:08:47;901.67;;;421.42;;
54328;SDS011;40710;51.120;13.136;2022-09-03T07:11:13;900.10;;;419.50;;
54328;SDS011;40710;51.120;13.136;2022-09-03T07:13:40;899.42;;;421.00;;
54328;SDS011;40710;51.120;13.136;2022-09-03T07:16:06;883.17;;;394.35;;
54328;SDS011;40710;51.120;13.136;2022-09-03T07:18:31;876.70;;;388.95;;
54328;SDS011;40710;51.120;13.136;2022-09-03T07:20:57;879.17;;;389.40;;
54328;SDS011;40710;51.120;13.136;2022-09-03T07:23:25;890.35;;;421.33;;
54328;SDS011;40710;51.120;13.136;2022-09-03T07:25:53;899.05;;;428.55;;
54328;SDS011;40710;51.120;13.136;2022-09-03T07:28:19;894.95;;;436.50;;
54328;SDS011;40710;51.120;13.136;2022-09-03T07:30:43;888.90;;;419.40;;
54328;SDS011;40710;51.120;13.136;2022-09-03T07:33:08;889.10;;;428.88;;
54328;SDS011;40710;51.120;13.136;2022-09-03T07:35:34;840.20;;;415.55;;
54328;SDS011;40710;51.120;13.136;2022-09-03T07:38:00;849.60;;;442.63;;
54328;SDS011;40710;51.120;13.136;2022-09-03T07:40:24;849.72;;;431.95;;
54328;SDS011;40710;51.120;13.136;2022-09-03T07:42:55;874.25;;;498.35;;
54328;SDS011;40710;51.120;13.136;2022-09-03T07:45:21;894.47;;;490.70;;
54328;SDS011;40710;51.120;13.136;2022-09-03T07:47:47;866.40;;;470.90;;
54328;SDS011;40710;51.120;13.136;2022-09-03T07:50:14;858.25;;;422.35;;
54328;SDS011;40710;51.120;13.136;2022-09-03T07:52:39;886.30;;;439.33;;
54328;SDS011;40710;51.120;13.136;2022-09-03T07:55:03;889.42;;;459.42;;
54328;SDS011;40710;51.120;13.136;2022-09-03T07:57:28;878.65;;;453.60;;
54328;SDS011;40710;51.120;13.136;2022-09-03T07:59:52;890.80;;;447.00;;
54328;SDS011;40710;51.120;13.136;2022-09-03T08:02:17;888.58;;;450.80;;
54328;SDS011;40710;51.120;13.136;2022-09-03T08:04:42;904.28;;;480.92;;
54328;SDS011;40710;51.120;13.136;2022-09-03T08:07:06;900.63;;;504.60;;
54328;SDS011;40710;51.120;13.136;2022-09-03T08:09:31;875.75;;;485.45;;
54328;SDS011;40710;51.120;13.136;2022-09-03T08:11:56;1030.70;;;663.88;;
54328;SDS011;40710;51.120;13.136;2022-09-03T08:14:20;1004.47;;;661.33;;
54328;SDS011;40710;51.120;13.136;2022-09-03T08:16:45;994.08;;;622.22;;
54328;SDS011;40710;51.120;13.136;2022-09-03T08:19:13;997.20;;;634.35;;
54328;SDS011;40710;51.120;13.136;2022-09-03T08:21:38;1003.88;;;661.53;;
54328;SDS011;40710;51.120;13.136;2022-09-03T08:24:06;1020.08;;;694.33;;
54328;SDS011;40710;51.120;13.136;2022-09-03T08:26:35;1023.25;;;677.13;;
54328;SDS011;40710;51.120;13.136;2022-09-03T08:29:02;1023.53;;;704.92;;
54328;SDS011;40710;51.120;13.136;2022-09-03T08:31:27;985.42;;;624.78;;
54328;SDS011;40710;51.120;13.136;2022-09-03T08:33:53;983.15;;;628.13;;
54328;SDS011;40710;51.120;13.136;2022-09-03T08:36:20;969.08;;;609.25;;
54328;SDS011;40710;51.120;13.136;2022-09-03T08:38:46;981.17;;;655.55;;
54328;SDS011;40710;51.120;13.136;2022-09-03T08:41:13;941.83;;;631.45;;
54328;SDS011;40710;51.120;13.136;2022-09-03T08:46:48;902.15;;;550.63;;
54328;SDS011;40710;51.120;13.136;2022-09-03T08:52:01;868.70;;;537.47;;
54328;SDS011;40710;51.120;13.136;2022-09-03T08:54:30;885.67;;;569.45;;
54328;SDS011;40710;51.120;13.136;2022-09-03T08:56:56;907.40;;;573.15;;
54328;SDS011;40710;51.120;13.136;2022-09-03T08:59:24;904.70;;;580.92;;
54328;SDS011;40710;51.120;13.136;2022-09-03T09:04:52;877.50;;;558.47;;
54328;SDS011;40710;51.120;13.136;2022-09-03T09:12:45;890.45;;;581.72;;
54328;SDS011;40710;51.120;13.136;2022-09-03T09:15:37;874.47;;;567.03;;
54328;SDS011;40710;51.120;13.136;2022-09-03T09:18:14;876.00;;;557.42;;
54328;SDS011;40710;51.120;13.136;2022-09-03T09:20:56;879.75;;;576.90;;
54328;SDS011;40710;51.120;13.136;2022-09-03T09:23:40;892.50;;;583.17;;
54328;SDS011;40710;51.120;13.136;2022-09-03T09:26:14;878.65;;;576.10;;
54328;SDS011;40710;51.120;13.136;2022-09-03T09:28:41;892.15;;;598.80;;
54328;SDS011;40710;51.120;13.136;2022-09-03T09:31:09;872.17;;;556.22;;
54328;SDS011;40710;51.120;13.136;2022-09-03T09:33:38;870.60;;;560.83;;
54328;SDS011;40710;51.120;13.136;2022-09-03T09:36:04;872.90;;;539.17;;
54328;SDS011;40710;51.120;13.136;2022-09-03T09:38:32;876.17;;;535.45;;
54328;SDS011;40710;51.120;13.136;2022-09-03T09:41:11;870.50;;;522.33;;
54328;SDS011;40710;51.120;13.136;2022-09-03T09:43:37;865.88;;;523.78;;
54328;SDS011;40710;51.120;13.136;2022-09-03T09:46:21;855.80;;;510.00;;
54328;SDS011;40710;51.120;13.136;2022-09-03T09:48:52;867.28;;;533.28;;
54328;SDS011;40710;51.120;13.136;2022-09-03T09:51:20;853.50;;;501.17;;
54328;SDS011;40710;51.120;13.136;2022-09-03T09:54:14;863.67;;;502.77;;
54328;SDS011;40710;51.120;13.136;2022-09-03T09:56:42;861.63;;;503.77;;
54328;SDS011;40710;51.120;13.136;2022-09-03T09:59:08;856.40;;;502.00;;
54328;SDS011;40710;51.120;13.136;2022-09-03T10:01:35;878.63;;;535.13;;
54328;SDS011;40710;51.120;13.136;2022-09-03T10:04:09;857.00;;;499.25;;
54328;SDS011;40710;51.120;13.136;2022-09-03T10:06:36;846.40;;;479.52;;
54328;SDS011;40710;51.120;13.136;2022-09-03T10:09:20;850.15;;;484.35;;
54328;SDS011;40710;51.120;13.136;2022-09-03T10:14:28;850.67;;;476.02;;
54328;SDS011;40710;51.120;13.136;2022-09-03T10:17:22;861.50;;;495.95;;
54328;SDS011;40710;51.120;13.136;2022-09-03T10:22:45;852.90;;;495.50;;
54328;SDS011;40710;51.120;13.136;2022-09-03T10:25:15;849.85;;;489.90;;
54328;SDS011;40710;51.120;13.136;2022-09-03T10:27:41;845.33;;;482.00;;
54328;SDS011;40710;51.120;13.136;2022-09-03T10:30:08;845.38;;;485.92;;
54328;SDS011;40710;51.120;13.136;2022-09-03T10:37:59;848.45;;;488.25;;
54328;SDS011;40710;51.120;13.136;2022-09-03T10:40:38;854.45;;;497.33;;
54328;SDS011;40710;51.120;13.136;2022-09-03T10:43:20;855.35;;;513.22;;
54328;SDS011;40710;51.120;13.136;2022-09-03T10:46:02;859.03;;;522.17;;
54328;SDS011;40710;51.120;13.136;2022-09-03T10:48:47;850.58;;;506.23;;
54328;SDS011;40710;51.120;13.136;2022-09-03T10:51:23;861.95;;;528.55;;
54328;SDS011;40710;51.120;13.136;2022-09-03T10:53:57;857.38;;;526.55;;
54328;SDS011;40710;51.120;13.136;2022-09-03T10:56:50;860.33;;;546.83;;
54328;SDS011;40710;51.120;13.136;2022-09-03T11:05:22;875.90;;;511.98;;
54328;SDS011;40710;51.120;13.136;2022-09-03T11:08:02;862.15;;;491.67;;
54328;SDS011;40710;51.120;13.136;2022-09-03T11:10:33;853.42;;;488.70;;
54328;SDS011;40710;51.120;13.136;2022-09-03T11:13:05;868.00;;;510.25;;
54328;SDS011;40710;51.120;13.136;2022-09-03T11:15:50;882.83;;;543.28;;
54328;SDS011;40710;51.120;13.136;2022-09-03T11:18:23;873.67;;;521.53;;
54328;SDS011;40710;51.120;13.136;2022-09-03T11:20:50;866.28;;;518.80;;
54328;SDS011;40710;51.120;13.136;2022-09-03T11:23:19;886.03;;;538.20;;
54328;SDS011;40710;51.120;13.136;2022-09-03T11:25:52;869.45;;;501.17;;
54328;SDS011;40710;51.120;13.136;2022-09-03T11:33:37;869.47;;;527.25;;
54328;SDS011;40710;51.120;13.136;2022-09-03T11:36:07;870.87;;;534.10;;
54328;SDS011;40710;51.120;13.136;2022-09-03T11:38:31;862.70;;;540.30;;
54328;SDS011;40710;51.120;13.136;2022-09-03T11:43:27;839.90;;;499.27;;
54328;SDS011;40710;51.120;13.136;2022-09-03T11:46:04;867.03;;;519.30;;
54328;SDS011;40710;51.120;13.136;2022-09-03T11:48:44;879.80;;;527.35;;
54328;SDS011;40710;51.120;13.136;2022-09-03T11:53:57;883.22;;;545.78;;
54328;SDS011;40710;51.120;13.136;2022-09-03T11:56:26;875.95;;;524.53;;
54328;SDS011;40710;51.120;13.136;2022-09-03T11:59:51;874.97;;;514.05;;
54328;SDS011;40710;51.120;13.136;2022-09-03T12:02:09;879.47;;;540.63;;
54328;SDS011;40710;51.120;13.136;2022-09-03T12:07:20;868.30;;;523.65;;
54328;SDS011;40710;51.120;13.136;2022-09-03T12:10:07;864.08;;;513.65;;
54328;SDS011;40710;51.120;13.136;2022-09-03T12:15:45;857.83;;;505.95;;
54328;SDS011;40710;51.120;13.136;2022-09-03T12:18:22;860.00;;;511.98;;
54328;SDS011;40710;51.120;13.136;2022-09-03T12:26:13;855.70;;;502.60;;
54328;SDS011;40710;51.120;13.136;2022-09-03T12:28:45;856.47;;;503.42;;
54328;SDS011;40710;51.120;13.136;2022-09-03T12:33:46;855.22;;;501.27;;
54328;SDS011;40710;51.120;13.136;2022-09-03T12:36:12;851.45;;;503.27;;
54328;SDS011;40710;51.120;13.136;2022-09-03T12:38:37;846.08;;;495.55;;
54328;SDS011;40710;51.120;13.136;2022-09-03T12:41:02;851.63;;;507.17;;
54328;SDS011;40710;51.120;13.136;2022-09-03T12:43:27;858.60;;;524.35;;
54328;SDS011;40710;51.120;13.136;2022-09-03T12:45:52;852.88;;;504.27;;
54328;SDS011;40710;51.120;13.136;2022-09-03T12:48:17;859.28;;;523.00;;
54328;SDS011;40710;51.120;13.136;2022-09-03T12:50:44;864.60;;;526.85;;
54328;SDS011;40710;51.120;13.136;2022-09-03T12:53:10;860.33;;;527.63;;
54328;SDS011;40710;51.120;13.136;2022-09-03T12:55:45;857.15;;;518.70;;
54328;SDS011;40710;51.120;13.136;2022-09-03T12:58:21;864.97;;;558.15;;
54328;SDS011;40710;51.120;13.136;2022-09-03T13:00:53;864.78;;;537.08;;
54328;SDS011;40710;51.120;13.136;2022-09-03T13:03:37;862.30;;;512.03;;
54328;SDS011;40710;51.120;13.136;2022-09-03T13:06:14;860.03;;;504.95;;
54328;SDS011;40710;51.120;13.136;2022-09-03T13:08:45;870.90;;;526.95;;
54328;SDS011;40710;51.120;13.136;2022-09-03T13:11:14;889.33;;;524.42;;
54328;SDS011;40710;51.120;13.136;2022-09-03T13:13:47;880.47;;;521.78;;
54328;SDS011;40710;51.120;13.136;2022-09-03T13:16:23;885.13;;;526.83;;
54328;SDS011;40710;51.120;13.136;2022-09-03T13:27:27;872.65;;;509.77;;
54328;SDS011;40710;51.120;13.136;2022-09-03T13:30:02;881.03;;;509.05;;
54328;SDS011;40710;51.120;13.136;2022-09-03T13:35:36;893.25;;;520.88;;
54328;SDS011;40710;51.120;13.136;2022-09-03T13:43:19;874.40;;;510.60;;
54328;SDS011;40710;51.120;13.136;2022-09-03T13:45:57;875.90;;;509.23;;
54328;SDS011;40710;51.120;13.136;2022-09-03T13:48:29;885.60;;;525.70;;
54328;SDS011;40710;51.120;13.136;2022-09-03T13:51:27;882.33;;;530.90;;
54328;SDS011;40710;51.120;13.136;2022-09-03T13:54:01;887.38;;;531.83;;
54328;SDS011;40710;51.120;13.136;2022-09-03T13:56:49;904.55;;;531.75;;
54328;SDS011;40710;51.120;13.136;2022-09-03T13:59:24;891.17;;;530.22;;
54328;SDS011;40710;51.120;13.136;2022-09-03T14:02:01;897.20;;;533.20;;
54328;SDS011;40710;51.120;13.136;2022-09-03T14:04:41;899.67;;;535.28;;
54328;SDS011;40710;51.120;13.136;2022-09-03T14:07:18;908.90;;;532.75;;
54328;SDS011;40710;51.120;13.136;2022-09-03T14:09:53;907.05;;;528.70;;
54328;SDS011;40710;51.120;13.136;2022-09-03T14:23:45;887.97;;;525.83;;
54328;SDS011;40710;51.120;13.136;2022-09-03T14:26:15;893.95;;;525.95;;
54328;SDS011;40710;51.120;13.136;2022-09-03T14:28:56;898.35;;;525.28;;
54328;SDS011;40710;51.120;13.136;2022-09-03T14:31:36;886.70;;;525.40;;
54328;SDS011;40710;51.120;13.136;2022-09-03T14:40:12;916.40;;;530.85;;
54328;SDS011;40710;51.120;13.136;2022-09-03T14:45:51;920.78;;;549.35;;
54328;SDS011;40710;51.120;13.136;2022-09-03T14:48:24;907.88;;;543.83;;
54328;SDS011;40710;51.120;13.136;2022-09-03T14:56:48;899.67;;;521.17;;
54328;SDS011;40710;51.120;13.136;2022-09-03T15:02:49;904.95;;;513.63;;
54328;SDS011;40710;51.120;13.136;2022-09-03T15:11:02;907.53;;;510.85;;
54328;SDS011;40710;51.120;13.136;2022-09-03T15:13:44;898.90;;;517.80;;
54328;SDS011;40710;51.120;13.136;2022-09-03T15:18:49;897.05;;;496.65;;
54328;SDS011;40710;51.120;13.136;2022-09-03T15:21:50;906.75;;;526.10;;
54328;SDS011;40710;51.120;13.136;2022-09-03T15:30:10;911.92;;;514.42;;
54328;SDS011;40710;51.120;13.136;2022-09-03T15:32:55;938.53;;;536.55;;
54328;SDS011;40710;51.120;13.136;2022-09-03T15:38:19;960.42;;;552.90;;
54328;SDS011;40710;51.120;13.136;2022-09-03T15:40:53;930.30;;;516.10;;
54328;SDS011;40710;51.120;13.136;2022-09-03T15:43:21;937.25;;;530.65;;
54328;SDS011;40710;51.120;13.136;2022-09-03T15:45:51;944.42;;;540.17;;
54328;SDS011;40710;51.120;13.136;2022-09-03T15:51:26;921.45;;;529.88;;
54328;SDS011;40710;51.120;13.136;2022-09-03T15:54:15;932.25;;;561.65;;
54328;SDS011;40710;51.120;13.136;2022-09-03T15:59:36;928.47;;;539.78;;
54328;SDS011;40710;51.120;13.136;2022-09-03T16:02:17;936.55;;;539.90;;
54328;SDS011;40710;51.120;13.136;2022-09-03T16:05:07;954.13;;;568.13;;
54328;SDS011;40710;51.120;13.136;2022-09-03T16:10:20;925.90;;;529.88;;
54328;SDS011;40710;51.120;13.136;2022-09-03T16:13:04;927.38;;;530.45;;
54328;SDS011;40710;51.120;13.136;2022-09-03T16:15:45;918.22;;;540.13;;
54328;SDS011;40710;51.120;13.136;2022-09-03T16:18:25;926.80;;;553.47;;
54328;SDS011;40710;51.120;13.136;2022-09-03T16:21:01;916.85;;;530.08;;
54328;SDS011;40710;51.120;13.136;2022-09-03T16:23:40;927.03;;;530.40;;
54328;SDS011;40710;51.120;13.136;2022-09-03T16:26:28;926.55;;;518.90;;
54328;SDS011;40710;51.120;13.136;2022-09-03T16:29:06;921.13;;;525.75;;
54328;SDS011;40710;51.120;13.136;2022-09-03T16:31:50;908.38;;;506.48;;
54328;SDS011;40710;51.120;13.136;2022-09-03T16:34:47;914.35;;;520.60;;
54328;SDS011;40710;51.120;13.136;2022-09-03T16:37:23;948.25;;;544.45;;
54328;SDS011;40710;51.120;13.136;2022-09-03T16:50:22;956.28;;;571.65;;
54328;SDS011;40710;51.120;13.136;2022-09-03T16:52:59;956.40;;;559.15;;
54328;SDS011;40710;51.120;13.136;2022-09-03T16:58:00;955.30;;;572.00;;
54328;SDS011;40710;51.120;13.136;2022-09-03T17:00:39;959.40;;;568.95;;
54328;SDS011;40710;51.120;13.136;2022-09-03T17:06:06;975.03;;;560.67;;
54328;SDS011;40710;51.120;13.136;2022-09-03T17:14:07;981.30;;;556.95;;